This is the latest recevied weather packets stored in our database for station/object K7ZQU-7. If no packets are shown the sender has not sent any weather packets the latest 10 day(s).
| Time | Temp. | Humidity | Pressure | Rain* | Wind** | Luminosity | Snow |
|---|---|---|---|---|---|---|---|
| 1777776491 | 11.67° C | 61% | 1014.3 hPa | 0 mm | 0 m/s | - | - |
| 1777776218 | 11.67° C | 62% | 1014.3 hPa | 0 mm | 0 m/s | - | - |
| 1777775591 | 12.22° C | 61% | 1014 hPa | 0 mm | 0 m/s | - | - |
| 1777775292 | 12.22° C | 64% | 1014.1 hPa | 0 mm | 0 m/s | - | - |
| 1777774994 | 12.22° C | 62% | 1014.1 hPa | 0 mm | 0 m/s | - | - |
| 1777774392 | 12.22° C | 65% | 1014.3 hPa | 0 mm | 0 m/s | - | - |
| 1777774093 | 12.78° C | 64% | 1014.3 hPa | 0 mm | 0 m/s | - | - |
| 1777773495 | 12.78° C | 65% | 1014.4 hPa | 0.25 mm | 0 m/s | - | - |
| 1777771998 | 12.78° C | 63% | 1014.5 hPa | 0.25 mm | 0 m/s | - | - |
| 1777771699 | 12.78° C | 62% | 1014.4 hPa | 0.25 mm | 0 m/s | - | - |
| 1777771397 | 12.78° C | 63% | 1014.4 hPa | 0.25 mm | 0 m/s | - | - |
| 1777771098 | 12.78° C | 60% | 1014.3 hPa | 0.25 mm | 0 m/s | - | - |
| 1777770799 | 12.78° C | 56% | 1014.3 hPa | 0.25 mm | 0 m/s | - | - |
| 1777769601 | 11.67° C | 66% | 1015.4 hPa | 0 mm | 0.89 m/s, 290° | - | - |
| 1777768704 | 11.67° C | 63% | 1015.6 hPa | 0 mm | 0.45 m/s, 302° | - | - |
| 1777768402 | 12.22° C | 62% | 1015.6 hPa | 0 mm | 0 m/s | - | - |
| 1777768103 | 12.22° C | 61% | 1015.4 hPa | 0 mm | 1.34 m/s, 194° | - | - |
| 1777767804 | 12.78° C | 61% | 1015.3 hPa | 0 mm | 0.89 m/s, 187° | - | - |
| 1777767505 | 13.33° C | 59% | 1015.4 hPa | 0 mm | 1.34 m/s, 252° | - | - |
| 1777766905 | 13.89° C | 54% | 1015 hPa | 0 mm | 1.34 m/s, 204° | - | - |
| 1777765109 | 16.67° C | 40% | 1014.1 hPa | 0 mm | 0.45 m/s, 197° | - | - |
| 1777764810 | 16.67° C | 39% | 1014 hPa | 0 mm | 0.45 m/s, 120° | - | - |
| 1777764212 | 17.22° C | 37% | 1013.9 hPa | 0 mm | 0.45 m/s, 219° | - | - |
| 1777763612 | 17.78° C | 38% | 1013.9 hPa | 0 mm | 0.45 m/s, 125° | - | - |
| 1777763313 | 17.78° C | 36% | 1013.9 hPa | 0 mm | 1.79 m/s, 87° | - | - |
* Rain latest hour (hover to see other rain measurements)
** Current wind speed in m/s (hover to see current wind gust speed)